Time;durP1;ratioP1;P1;durP2;ratioP2;P2;SDS_P1;SDS_P2;PMS_P1;PMS_P2;Temp;Humidity;BMP_temperature;BMP_pressure;BME280_temperature;BME280_humidity;BME280_pressure;Samples;Min_cycle;Max_cycle;Signal;HPM_P1;HPM_P2
2023/04/09 00:01:24;;;;;;;22.77;13.60;;;6.50;93.70;;;;;;4928525;28;21022;-60
2023/04/09 00:03:51;;;;;;;25.53;12.07;;;6.50;93.70;;;;;;4989504;28;20474;-61
2023/04/09 00:06:17;;;;;;;22.77;11.50;;;6.40;93.70;;;;;;4995231;28;20489;-61
2023/04/09 00:08:45;;;;;;;30.10;14.97;;;6.30;93.60;;;;;;4994337;28;20551;-60
2023/04/09 00:11:12;;;;;;;29.23;14.10;;;6.20;93.60;;;;;;4995574;28;22019;-61
2023/04/09 00:13:39;;;;;;;38.57;14.83;;;6.10;93.90;;;;;;5014002;28;21019;-60
2023/04/09 00:16:06;;;;;;;31.30;14.63;;;6.10;93.90;;;;;;4994377;28;20478;-60
2023/04/09 00:18:32;;;;;;;22.83;10.73;;;6.10;94.00;;;;;;4991174;28;20493;-60
2023/04/09 00:20:59;;;;;;;26.43;11.53;;;6.10;93.90;;;;;;4995413;28;20877;-61
2023/04/09 00:23:26;;;;;;;26.40;12.20;;;6.10;93.80;;;;;;4993979;28;20486;-60
2023/04/09 00:25:54;;;;;;;33.47;14.07;;;6.10;93.80;;;;;;4992463;28;20802;-61
2023/04/09 00:28:20;;;;;;;30.43;13.70;;;6.10;93.80;;;;;;4991468;28;20760;-61
2023/04/09 00:30:47;;;;;;;28.57;13.20;;;6.10;93.60;;;;;;4990928;28;20727;-61
2023/04/09 00:33:14;;;;;;;32.23;14.60;;;6.10;93.80;;;;;;4990826;28;21041;-60
2023/04/09 00:35:40;;;;;;;35.50;15.30;;;6.10;94.00;;;;;;4988836;28;20763;-60
2023/04/09 00:38:07;;;;;;;41.77;15.07;;;6.10;94.20;;;;;;4991035;28;20953;-60
2023/04/09 00:40:34;;;;;;;30.53;14.80;;;5.90;94.20;;;;;;4990631;28;21221;-61
2023/04/09 00:43:02;;;;;;;31.87;13.60;;;;;;;;;;4994345;28;20543;-60
2023/04/09 00:45:29;;;;;;;31.87;14.53;;;6.10;94.40;;;;;;4992903;28;20489;-61
2023/04/09 00:47:56;;;;;;;31.00;14.53;;;5.90;94.30;;;;;;4983717;28;21003;-60
2023/04/09 00:50:22;;;;;;;31.27;15.63;;;5.90;94.20;;;;;;5008293;28;21045;-60
2023/04/09 00:52:49;;;;;;;26.73;12.87;;;5.80;94.00;;;;;;4993151;28;20482;-60
2023/04/09 00:55:18;;;;;;;27.20;14.53;;;5.60;93.60;;;;;;4993710;28;20482;-60
2023/04/09 00:57:45;;;;;;;39.83;16.17;;;5.40;93.90;;;;;;4990879;28;20559;-60
2023/04/09 01:00:14;;;;;;;28.10;15.53;;;5.20;94.30;;;;;;4994781;28;20594;-61
2023/04/09 01:02:41;;;;;;;31.17;16.23;;;5.00;95.00;;;;;;5015130;28;20482;-61
2023/04/09 01:05:09;;;;;;;44.33;15.13;;;4.90;95.80;;;;;;4998106;28;20471;-60
2023/04/09 01:07:49;;;;;;;42.53;19.97;;;4.90;95.60;;;;;;5014336;28;20474;-60
2023/04/09 01:10:23;;;;;;;26.53;14.20;;;5.10;95.10;;;;;;5017231;28;20551;-60
2023/04/09 01:12:59;;;;;;;23.47;12.50;;;5.10;94.80;;;;;;5044332;28;21764;-60
2023/04/09 01:15:32;;;;;;;25.80;13.57;;;5.20;94.70;;;;;;5030247;28;20479;-60
2023/04/09 01:18:06;;;;;;;23.93;13.00;;;5.30;95.00;;;;;;5001765;28;20532;-60
2023/04/09 01:20:39;;;;;;;33.63;18.00;;;5.30;95.00;;;;;;5000859;28;20489;-60
2023/04/09 01:23:16;;;;;;;26.90;14.37;;;4.20;94.40;;;;;;5000488;28;20481;-60
2023/04/09 01:26:01;;;;;;;35.67;17.40;;;5.40;95.00;;;;;;5040590;28;20468;-60
2023/04/09 01:28:33;;;;;;;30.03;15.23;;;5.50;94.60;;;;;;5018038;28;20468;-60
2023/04/09 01:31:02;;;;;;;26.30;14.27;;;5.50;94.30;;;;;;5030543;28;20897;-60
2023/04/09 01:33:31;;;;;;;35.13;13.07;;;5.50;94.10;;;;;;4998787;28;21115;-60
2023/04/09 01:35:59;;;;;;;27.07;13.00;;;5.50;94.20;;;;;;4999315;28;20474;-60
2023/04/09 01:38:27;;;;;;;29.77;13.63;;;5.50;94.50;;;;;;5008741;28;20510;-60
2023/04/09 01:40:56;;;;;;;24.50;11.13;;;5.50;94.60;;;;;;5012299;28;20598;-60
2023/04/09 01:43:25;;;;;;;30.33;15.67;;;5.40;94.70;;;;;;5011919;28;20484;-60
2023/04/09 01:45:54;;;;;;;25.27;13.67;;;5.40;95.10;;;;;;5000012;28;20473;-60
2023/04/09 01:48:22;;;;;;;32.53;15.50;;;5.40;95.30;;;;;;5014366;28;20474;-60
2023/04/09 01:50:50;;;;;;;32.70;15.60;;;5.40;95.20;;;;;;5017572;28;21271;-60
2023/04/09 01:53:17;;;;;;;31.80;16.03;;;5.50;95.10;;;;;;4996545;28;20908;-60
2023/04/09 01:55:44;;;;;;;28.77;14.33;;;5.50;94.60;;;;;;5008076;28;20484;-60
2023/04/09 01:58:11;;;;;;;22.80;13.20;;;5.50;94.60;;;;;;5007207;28;21249;-60
2023/04/09 02:00:44;;;;;;;34.43;17.17;;;5.50;94.60;;;;;;4992557;28;20485;-60
2023/04/09 02:03:18;;;;;;;32.60;16.60;;;5.50;94.80;;;;;;5028217;28;20467;-60
2023/04/09 02:05:50;;;;;;;33.90;16.27;;;5.60;94.80;;;;;;4997158;28;20754;-60
2023/04/09 02:08:21;;;;;;;26.43;13.13;;;5.60;94.90;;;;;;4988132;28;20478;-60
2023/04/09 02:10:54;;;;;;;28.60;14.13;;;5.50;94.60;;;;;;4985294;28;20465;-60
2023/04/09 02:13:21;;;;;;;20.63;10.93;;;5.50;94.30;;;;;;5003824;28;20489;-60
2023/04/09 02:15:49;;;;;;;21.53;12.13;;;5.50;94.30;;;;;;5003537;28;20549;-60
2023/04/09 02:18:26;;;;;;;27.10;13.37;;;5.50;94.50;;;;;;4999976;28;20973;-60
2023/04/09 02:20:53;;;;;;;22.00;11.57;;;5.50;94.40;;;;;;4998331;28;20484;-60
2023/04/09 02:23:20;;;;;;;26.80;14.50;;;5.40;94.20;;;;;;5028807;28;20991;-60
2023/04/09 02:25:46;;;;;;;28.20;14.83;;;5.40;94.10;;;;;;5029041;28;21073;-60
2023/04/09 02:28:13;;;;;;;23.33;11.27;;;5.40;94.20;;;;;;5027836;28;20490;-60
2023/04/09 02:30:40;;;;;;;36.03;18.43;;;5.50;94.30;;;;;;5020279;28;20483;-60
2023/04/09 02:33:07;;;;;;;27.93;14.13;;;5.50;94.60;;;;;;5042521;28;20571;-60
2023/04/09 02:35:35;;;;;;;40.13;17.37;;;5.50;94.80;;;;;;4997887;28;20998;-61
2023/04/09 02:38:02;;;;;;;22.93;13.80;;;5.50;94.90;;;;;;4987835;28;21631;-60
2023/04/09 02:40:29;;;;;;;33.33;16.27;;;5.50;95.00;;;;;;4992275;28;20542;-60
2023/04/09 02:42:56;;;;;;;34.03;15.17;;;5.60;95.20;;;;;;5002293;28;20564;-60
2023/04/09 02:45:22;;;;;;;28.77;14.77;;;5.60;95.30;;;;;;4987817;28;21056;-60
2023/04/09 02:47:49;;;;;;;32.77;17.23;;;5.60;95.50;;;;;;4989707;28;20982;-60
2023/04/09 02:50:16;;;;;;;31.07;13.80;;;5.70;95.80;;;;;;5001194;28;20835;-60
2023/04/09 02:52:46;;;;;;;44.00;20.33;;;5.70;95.80;;;;;;4994527;28;20493;-60
2023/04/09 02:55:13;;;;;;;31.40;16.53;;;8.10;97.00;;;;;;4992901;28;20486;-60
2023/04/09 02:57:39;;;;;;;49.47;21.70;;;5.80;96.10;;;;;;4992108;28;20920;-60
2023/04/09 03:00:07;;;;;;;35.83;14.60;;;5.90;96.10;;;;;;5002750;28;20477;-60
2023/04/09 03:02:34;;;;;;;50.47;21.37;;;5.90;96.10;;;;;;5012893;28;20476;-60
2023/04/09 03:05:01;;;;;;;29.60;15.10;;;6.00;96.10;;;;;;5014795;28;20853;-60
2023/04/09 03:07:28;;;;;;;32.60;16.30;;;6.10;96.00;;;;;;5001694;28;20503;-60
2023/04/09 03:09:56;;;;;;;33.27;17.83;;;6.10;96.00;;;;;;4997366;28;20560;-60
2023/04/09 03:12:22;;;;;;;33.07;14.70;;;6.20;95.90;;;;;;4988080;28;20737;-60
2023/04/09 03:14:49;;;;;;;33.33;17.67;;;7.30;96.30;;;;;;4988536;28;20484;-60
2023/04/09 03:17:16;;;;;;;25.13;15.07;;;6.20;95.80;;;;;;5018020;28;20539;-61
2023/04/09 03:19:42;;;;;;;30.10;14.13;;;6.30;95.60;;;;;;4998942;28;21079;-61
2023/04/09 03:22:09;;;;;;;22.60;13.43;;;6.30;95.50;;;;;;5001734;28;20744;-61
2023/04/09 03:24:36;;;;;;;38.83;20.10;;;6.20;95.80;;;;;;5010041;28;20490;-61
2023/04/09 03:27:04;;;;;;;37.53;17.97;;;6.20;97.00;;;;;;4990355;28;20756;-60
2023/04/09 03:29:30;;;;;;;44.83;20.97;;;6.20;97.90;;;;;;4989942;28;20470;-60
2023/04/09 03:31:57;;;;;;;34.77;18.73;;;6.20;98.20;;;;;;4991214;28;20485;-61
2023/04/09 03:34:24;;;;;;;31.23;14.40;;;6.20;98.20;;;;;;4992875;28;20520;-60
2023/04/09 03:36:51;;;;;;;32.77;17.73;;;6.20;98.30;;;;;;5001073;28;20833;-61
2023/04/09 03:39:17;;;;;;;33.03;19.90;;;6.20;98.50;;;;;;4967556;28;20912;-60
2023/04/09 03:41:44;;;;;;;34.23;17.73;;;6.20;98.40;;;;;;4949267;28;20975;-61
2023/04/09 03:44:12;;;;;;;34.27;19.37;;;6.30;98.20;;;;;;5014851;28;20488;-60
2023/04/09 03:46:39;;;;;;;36.70;20.53;;;6.30;98.00;;;;;;4994620;28;20521;-61
2023/04/09 03:49:05;;;;;;;31.20;16.30;;;6.40;97.90;;;;;;4991967;28;20485;-60
2023/04/09 03:51:32;;;;;;;36.47;22.33;;;6.60;97.70;;;;;;4985737;28;20477;-60
2023/04/09 03:53:59;;;;;;;29.67;17.63;;;6.50;97.30;;;;;;5000176;28;20486;-60
2023/04/09 03:56:25;;;;;;;33.50;16.77;;;6.50;97.00;;;;;;4986583;28;20534;-60
2023/04/09 03:58:52;;;;;;;32.27;18.17;;;6.50;96.90;;;;;;4993715;28;20482;-60
2023/04/09 04:01:20;;;;;;;32.40;18.70;;;6.40;96.80;;;;;;5004813;28;20481;-60
2023/04/09 04:03:47;;;;;;;34.27;15.70;;;6.40;97.20;;;;;;5001253;28;20504;-60
2023/04/09 04:06:13;;;;;;;27.13;16.63;;;6.40;97.30;;;;;;4999722;28;20503;-61
2023/04/09 04:08:40;;;;;;;38.80;22.17;;;6.40;97.10;;;;;;5003378;28;20471;-60
2023/04/09 04:11:07;;;;;;;26.83;14.53;;;6.30;96.40;;;;;;5013024;28;20524;-60
2023/04/09 04:13:33;;;;;;;30.67;17.97;;;5.90;96.00;;;;;;5013213;28;20606;-60
2023/04/09 04:16:00;;;;;;;26.00;15.60;;;6.20;95.90;;;;;;4998922;28;20482;-60
2023/04/09 04:18:28;;;;;;;24.27;12.17;;;6.20;95.70;;;;;;5009747;28;20482;-60
2023/04/09 04:20:55;;;;;;;24.70;14.40;;;6.20;95.60;;;;;;5004374;28;20467;-60
2023/04/09 04:23:21;;;;;;;24.70;14.07;;;6.10;95.80;;;;;;4995853;28;20500;-60
2023/04/09 04:25:48;;;;;;;26.13;12.80;;;6.10;96.10;;;;;;5020607;28;20516;-61
2023/04/09 04:28:15;;;;;;;27.97;15.10;;;6.00;96.10;;;;;;5001508;28;20477;-60
2023/04/09 04:30:42;;;;;;;39.33;18.80;;;6.00;96.10;;;;;;5020326;28;20845;-60
2023/04/09 04:33:09;;;;;;;30.00;15.60;;;6.00;96.10;;;;;;5006583;28;20825;-60
2023/04/09 04:35:37;;;;;;;44.60;19.93;;;6.00;96.10;;;;;;4981328;28;20489;-60
2023/04/09 04:38:03;;;;;;;28.63;15.50;;;6.00;96.20;;;;;;5008157;28;20516;-60
2023/04/09 04:40:30;;;;;;;42.03;18.07;;;5.90;96.20;;;;;;5006316;28;20481;-60
2023/04/09 04:42:57;;;;;;;26.27;15.60;;;5.90;96.30;;;;;;4997687;28;20497;-60
2023/04/09 04:45:23;;;;;;;29.13;15.40;;;5.90;96.40;;;;;;4991716;28;20505;-60
2023/04/09 04:47:50;;;;;;;33.03;16.13;;;5.90;96.10;;;;;;5005256;28;20485;-60
2023/04/09 04:50:17;;;;;;;33.83;17.40;;;5.90;96.00;;;;;;4997782;28;20495;-60
2023/04/09 04:52:45;;;;;;;34.87;17.97;;;5.90;95.90;;;;;;5029521;28;20726;-60
2023/04/09 04:55:11;;;;;;;28.33;14.30;;;5.90;96.10;;;;;;4982159;28;20887;-60
2023/04/09 04:57:38;;;;;;;34.53;19.50;;;5.80;96.10;;;;;;4997455;28;20485;-60
2023/04/09 05:00:06;;;;;;;26.83;15.63;;;5.80;96.00;;;;;;5004491;28;20794;-60
2023/04/09 05:02:33;;;;;;;26.90;13.70;;;5.80;96.00;;;;;;4999109;28;20522;-60
2023/04/09 05:04:59;;;;;;;32.27;18.27;;;5.80;96.10;;;;;;5008815;28;20485;-60
2023/04/09 05:07:26;;;;;;;34.57;16.80;;;5.80;96.10;;;;;;5011758;28;20498;-60
2023/04/09 05:09:54;;;;;;;27.97;15.77;;;5.80;96.10;;;;;;5004440;28;20489;-60
2023/04/09 05:12:21;;;;;;;25.70;15.60;;;5.80;96.10;;;;;;4984359;28;20508;-60
2023/04/09 05:14:47;;;;;;;24.37;14.53;;;5.80;96.10;;;;;;5006926;28;20484;-60
2023/04/09 05:17:14;;;;;;;36.53;14.33;;;5.80;96.00;;;;;;4991745;28;20470;-60
2023/04/09 05:19:41;;;;;;;35.53;18.73;;;5.80;95.90;;;;;;5008218;28;20579;-60
2023/04/09 05:22:07;;;;;;;28.23;16.10;;;5.90;95.90;;;;;;5014782;28;20496;-60
2023/04/09 05:24:34;;;;;;;39.03;19.30;;;5.90;95.80;;;;;;5019322;28;20484;-60
2023/04/09 05:27:02;;;;;;;28.27;15.50;;;5.90;95.90;;;;;;5014455;28;20759;-60
2023/04/09 05:29:28;;;;;;;28.20;15.97;;;5.90;95.90;;;;;;5000968;28;20811;-60
2023/04/09 05:31:55;;;;;;;26.50;14.60;;;6.00;96.00;;;;;;4993959;28;20897;-60
2023/04/09 05:34:22;;;;;;;24.00;15.00;;;6.00;96.00;;;;;;4993640;28;21040;-60
2023/04/09 05:36:48;;;;;;;27.00;15.37;;;6.10;96.10;;;;;;4990363;28;20489;-60
2023/04/09 05:39:15;;;;;;;24.03;13.40;;;6.20;96.10;;;;;;4996355;28;20481;-60
2023/04/09 05:41:43;;;;;;;32.43;17.70;;;6.20;96.20;;;;;;5013017;28;21063;-60
2023/04/09 05:44:11;;;;;;;22.70;14.40;;;6.20;96.80;;;;;;5001836;28;20489;-60
2023/04/09 05:46:38;;;;;;;39.90;17.73;;;6.20;97.00;;;;;;5003613;28;20542;-60
2023/04/09 05:49:05;;;;;;;24.97;14.67;;;6.30;97.10;;;;;;5007490;28;20534;-60
2023/04/09 05:51:31;;;;;;;27.77;17.00;;;6.20;97.20;;;;;;4996661;28;20489;-60
2023/04/09 05:53:58;;;;;;;28.93;15.40;;;6.30;97.50;;;;;;5002737;28;20476;-60
2023/04/09 05:56:26;;;;;;;24.27;14.60;;;6.40;97.50;;;;;;5008787;28;20538;-60
2023/04/09 05:58:53;;;;;;;33.67;16.40;;;6.70;98.00;;;;;;5012955;28;20880;-61
2023/04/09 06:01:21;;;;;;;27.80;14.43;;;7.10;98.10;;;;;;5012592;28;20535;-61
2023/04/09 06:03:48;;;;;;;22.57;13.90;;;7.40;97.50;;;;;;4998046;28;20565;-60
2023/04/09 06:06:15;;;;;;;24.20;15.43;;;7.70;97.10;;;;;;4995584;28;20486;-61
2023/04/09 06:08:43;;;;;;;28.07;15.23;;;8.10;96.60;;;;;;4842881;28;4710568;-61
2023/04/09 06:11:10;;;;;;;24.10;16.17;;;8.30;96.40;;;;;;5014973;28;20757;-61
2023/04/09 06:13:37;;;;;;;32.63;20.23;;;8.60;96.50;;;;;;5002210;28;20861;-61
2023/04/09 06:16:04;;;;;;;28.93;14.90;;;8.90;96.20;;;;;;5006190;28;20499;-61
2023/04/09 06:18:33;;;;;;;31.13;19.70;;;9.30;96.20;;;;;;5015665;28;20493;-60
2023/04/09 06:21:03;;;;;;;29.10;16.50;;;9.60;96.10;;;;;;4996207;28;20994;-61
2023/04/09 06:23:30;;;;;;;32.37;17.90;;;10.00;95.50;;;;;;4994813;28;20502;-61
2023/04/09 06:25:57;;;;;;;19.63;13.60;;;10.30;95.50;;;;;;5017439;28;20488;-61
2023/04/09 06:28:23;;;;;;;25.40;15.87;;;10.70;95.30;;;;;;5006759;28;20548;-61
2023/04/09 06:30:52;;;;;;;20.40;13.37;;;11.50;95.30;;;;;;5004774;28;20476;-61
2023/04/09 06:33:19;;;;;;;17.83;12.23;;;12.10;93.80;;;;;;4991709;28;20498;-61
2023/04/09 06:35:47;;;;;;;21.30;14.83;;;;;;;;;;4993096;28;20868;-61
2023/04/09 06:38:14;;;;;;;18.57;13.80;;;13.40;93.30;;;;;;4988758;28;20497;-61
2023/04/09 06:40:41;;;;;;;30.03;15.40;;;14.10;92.80;;;;;;4987033;28;22242;-61
2023/04/09 06:43:08;;;;;;;21.80;13.33;;;;;;;;;;4994704;28;20943;-61
2023/04/09 06:45:36;;;;;;;21.93;15.13;;;15.00;91.70;;;;;;4994876;28;20544;-61
2023/04/09 06:48:03;;;;;;;19.33;12.67;;;15.40;91.00;;;;;;4993507;28;20794;-61
2023/04/09 06:50:30;;;;;;;20.07;13.27;;;15.90;90.60;;;;;;4985867;28;20489;-62
2023/04/09 06:52:58;;;;;;;66.80;15.77;;;16.50;90.80;;;;;;4992711;28;21045;-62
2023/04/09 06:55:25;;;;;;;21.40;12.10;;;16.90;89.50;;;;;;4993014;28;20593;-61
2023/04/09 06:57:52;;;;;;;13.40;10.00;;;17.30;89.10;;;;;;5012605;28;20866;-62
2023/04/09 07:00:19;;;;;;;18.13;13.27;;;17.60;88.20;;;;;;4994893;28;20893;-62
2023/04/09 07:02:45;;;;;;;17.50;12.80;;;17.90;87.80;;;;;;4986738;28;20478;-62
2023/04/09 07:05:12;;;;;;;16.40;12.50;;;18.20;87.30;;;;;;4987997;28;20473;-62
2023/04/09 07:07:39;;;;;;;17.00;13.83;;;18.30;86.80;;;;;;4996734;28;20479;-62
2023/04/09 07:10:08;;;;;;;20.63;12.97;;;18.40;85.80;;;;;;4987454;28;20496;-62
2023/04/09 07:12:35;;;;;;;20.10;12.90;;;18.60;86.90;;;;;;4997782;28;20822;-62
2023/04/09 07:15:04;;;;;;;12.60;10.60;;;18.60;86.40;;;;;;4988865;28;20488;-62
2023/04/09 07:17:31;;;;;;;17.53;11.27;;;18.50;84.20;;;;;;4994020;28;21006;-62
2023/04/09 07:19:58;;;;;;;14.70;11.60;;;18.40;85.20;;;;;;4989442;28;20877;-62
2023/04/09 07:22:26;;;;;;;15.43;11.63;;;18.30;85.40;;;;;;5009343;28;20549;-62
2023/04/09 07:24:53;;;;;;;15.70;10.50;;;18.20;86.30;;;;;;5005746;28;20571;-63
2023/04/09 07:27:22;;;;;;;32.17;11.80;;;18.20;85.20;;;;;;4995660;28;20516;-62
2023/04/09 07:29:48;;;;;;;15.10;10.90;;;18.00;84.70;;;;;;5018096;28;20699;-63
2023/04/09 07:32:15;;;;;;;15.10;10.77;;;18.00;86.60;;;;;;5018838;28;20494;-62
2023/04/09 07:34:43;;;;;;;16.67;11.77;;;17.80;85.20;;;;;;5000561;28;21075;-62
2023/04/09 07:37:12;;;;;;;15.77;11.77;;;17.60;85.60;;;;;;4999969;28;20489;-62
2023/04/09 07:39:39;;;;;;;18.17;13.07;;;17.40;85.00;;;;;;5011268;28;20570;-63
2023/04/09 07:42:06;;;;;;;21.10;11.53;;;17.10;86.70;;;;;;4996620;28;20497;-62
2023/04/09 07:44:36;;;;;;;18.10;13.60;;;17.00;85.70;;;;;;4992959;28;20493;-62
2023/04/09 07:47:03;;;;;;;19.43;12.80;;;16.90;86.60;;;;;;5014673;28;20563;-62
2023/04/09 07:49:30;;;;;;;22.70;13.57;;;16.90;87.50;;;;;;5004285;28;21016;-62
2023/04/09 07:51:57;;;;;;;17.73;12.40;;;16.90;86.80;;;;;;5006145;28;20533;-62
2023/04/09 07:54:24;;;;;;;16.10;12.23;;;16.90;88.40;;;;;;5002465;28;20488;-61
2023/04/09 07:56:50;;;;;;;20.53;10.90;;;16.60;86.40;;;;;;5008805;28;20492;-63
2023/04/09 07:59:17;;;;;;;18.83;12.00;;;18.60;88.80;;;;;;5016706;28;20497;-62
2023/04/09 08:01:45;;;;;;;20.17;13.73;;;16.50;88.50;;;;;;4986698;28;20474;-62
2023/04/09 08:04:12;;;;;;;24.93;12.07;;;16.40;89.30;;;;;;4996194;28;20515;-62
2023/04/09 08:06:39;;;;;;;20.07;14.30;;;16.50;88.90;;;;;;4996762;28;20722;-62
2023/04/09 08:09:06;;;;;;;20.10;13.33;;;16.60;88.40;;;;;;4994457;28;20488;-63
2023/04/09 08:11:33;;;;;;;23.83;13.20;;;16.70;89.30;;;;;;5017398;28;20486;-62
2023/04/09 08:14:01;;;;;;;18.87;12.67;;;16.90;88.80;;;;;;5009666;28;20540;-62
2023/04/09 08:16:29;;;;;;;17.80;12.37;;;17.10;88.60;;;;;;4986345;28;20940;-62
2023/04/09 08:18:57;;;;;;;18.83;12.03;;;17.10;86.10;;;;;;5005759;28;20477;-63
2023/04/09 08:21:25;;;;;;;18.07;12.10;;;17.30;87.80;;;;;;4987514;28;20498;-63
2023/04/09 08:23:52;;;;;;;16.17;11.83;;;17.40;87.80;;;;;;4991047;28;20610;-61
2023/04/09 08:26:18;;;;;;;20.40;11.30;;;17.50;86.90;;;;;;4992162;28;20493;-62
2023/04/09 08:28:45;;;;;;;20.00;12.73;;;17.40;87.60;;;;;;4992282;28;20483;-62
2023/04/09 08:31:12;;;;;;;17.70;12.30;;;17.50;87.70;;;;;;4995075;28;20486;-63
2023/04/09 08:33:38;;;;;;;21.87;13.20;;;17.50;86.30;;;;;;5007805;28;20473;-63
2023/04/09 08:36:10;;;;;;;19.27;12.83;;;17.50;87.40;;;;;;5009179;28;20481;-62
2023/04/09 08:38:37;;;;;;;21.20;15.43;;;17.50;86.50;;;;;;5027690;28;21246;-63
2023/04/09 08:41:05;;;;;;;21.63;13.03;;;17.70;88.30;;;;;;5015331;28;20647;-62
2023/04/09 08:43:32;;;;;;;19.40;13.40;;;17.80;88.10;;;;;;5015237;28;20476;-62
2023/04/09 08:46:01;;;;;;;18.17;13.67;;;17.90;87.40;;;;;;5013450;28;20485;-63
2023/04/09 08:48:29;;;;;;;17.90;13.10;;;18.10;87.30;;;;;;5018146;28;20524;-62
2023/04/09 08:50:56;;;;;;;31.03;13.13;;;18.30;87.00;;;;;;5018184;28;20954;-63
2023/04/09 08:53:26;;;;;;;16.70;11.97;;;18.40;84.70;;;;;;5017648;28;20489;-62
2023/04/09 08:55:52;;;;;;;15.73;11.63;;;18.50;85.20;;;;;;5015838;28;20481;-63
2023/04/09 08:58:19;;;;;;;13.60;10.50;;;18.50;82.90;;;;;;5014362;28;20481;-63
2023/04/09 09:00:46;;;;;;;13.87;10.40;;;18.60;81.80;;;;;;5017877;28;20484;-62
2023/04/09 09:03:13;;;;;;;14.73;10.00;;;18.50;79.40;;;;;;5015580;28;20485;-63
2023/04/09 09:05:41;;;;;;;11.13;9.93;;;18.50;77.80;;;;;;5018407;28;20813;-63
2023/04/09 09:08:10;;;;;;;24.03;9.20;;;18.00;72.80;;;;;;5020382;28;20487;-63
2023/04/09 09:10:43;;;;;;;13.80;10.97;;;17.90;79.70;;;;;;5005743;28;20478;-63
2023/04/09 09:13:22;;;;;;;12.60;9.60;;;18.00;79.20;;;;;;5003382;28;20492;-62
2023/04/09 09:15:51;;;;;;;12.90;9.10;;;18.20;81.80;;;;;;5007036;28;20571;-64
2023/04/09 09:18:19;;;;;;;11.10;8.67;;;18.40;81.20;;;;;;5011922;28;20500;-63
2023/04/09 09:20:45;;;;;;;11.57;8.00;;;18.40;76.60;;;;;;5004380;28;20795;-62
2023/04/09 09:23:12;;;;;;;8.93;6.97;;;18.50;77.70;;;;;;4998155;28;20487;-63
2023/04/09 09:25:41;;;;;;;12.30;10.00;;;18.50;75.80;;;;;;4998459;28;20481;-63
2023/04/09 09:28:09;;;;;;;27.53;8.43;;;18.20;73.80;;;;;;5001901;28;20971;-63
2023/04/09 09:30:37;;;;;;;16.17;11.43;;;17.90;74.50;;;;;;5005581;28;20485;-63
2023/04/09 09:33:06;;;;;;;11.57;8.87;;;17.80;76.70;;;;;;5009360;28;20492;-63
2023/04/09 09:35:47;;;;;;;21.50;11.10;;;17.40;70.40;;;;;;4999142;28;20497;-63
2023/04/09 09:38:15;;;;;;;8.33;7.00;;;17.60;79.60;;;;;;5004946;28;20936;-63
2023/04/09 09:40:43;;;;;;;18.97;8.83;;;17.90;77.60;;;;;;5006714;28;20532;-63
2023/04/09 09:43:10;;;;;;;9.37;7.60;;;17.80;73.70;;;;;;4998602;28;20482;-63
2023/04/09 09:45:37;;;;;;;15.00;10.20;;;17.80;72.00;;;;;;4999626;28;20971;-63
2023/04/09 09:48:05;;;;;;;6.73;5.40;;;17.50;69.10;;;;;;5001230;28;20581;-63
2023/04/09 09:50:33;;;;;;;16.07;11.70;;;17.40;73.00;;;;;;4998431;28;21016;-62
2023/04/09 09:53:03;;;;;;;9.83;7.40;;;17.30;72.00;;;;;;4998553;28;20490;-63
2023/04/09 09:55:32;;;;;;;15.20;6.60;;;17.30;74.40;;;;;;5016039;28;20972;-63
2023/04/09 09:58:02;;;;;;;11.17;6.80;;;17.50;73.30;;;;;;5008999;28;20482;-63
2023/04/09 10:00:32;;;;;;;9.07;7.77;;;;;;;;;;4998767;28;20558;-62
2023/04/09 10:03:05;;;;;;;7.27;5.73;;;17.20;69.00;;;;;;5016090;28;20485;-63
2023/04/09 10:05:34;;;;;;;11.33;9.17;;;16.80;68.90;;;;;;4993523;28;20494;-62
2023/04/09 10:08:01;;;;;;;6.90;5.70;;;16.30;68.40;;;;;;5001756;28;20473;-63
2023/04/09 10:10:29;;;;;;;9.47;7.33;;;16.10;69.20;;;;;;4999488;28;20481;-63
2023/04/09 10:12:56;;;;;;;6.23;5.60;;;15.80;70.30;;;;;;5003225;28;20883;-62
2023/04/09 10:15:25;;;;;;;23.03;6.13;;;16.00;75.20;;;;;;4998376;28;20474;-62
2023/04/09 10:17:52;;;;;;;7.70;6.27;;;15.90;72.20;;;;;;5000226;28;20478;-63
2023/04/09 10:20:27;;;;;;;11.83;8.40;;;16.20;73.10;;;;;;5000052;28;20493;-62
2023/04/09 10:22:55;;;;;;;11.57;6.57;;;16.60;74.50;;;;;;4999841;28;20556;-63
2023/04/09 10:25:22;;;;;;;8.93;6.87;;;16.70;71.60;;;;;;4998087;28;20490;-63
2023/04/09 10:27:59;;;;;;;8.57;6.27;;;17.00;75.00;;;;;;4997635;28;20477;-63
2023/04/09 10:30:33;;;;;;;8.83;7.63;;;17.30;74.80;;;;;;4995013;28;20903;-63
2023/04/09 10:33:12;;;;;;;6.30;5.67;;;17.10;71.90;;;;;;4998138;28;20497;-62
2023/04/09 10:35:39;;;;;;;10.97;8.73;;;17.10;71.90;;;;;;4997340;28;20493;-63
2023/04/09 10:38:08;;;;;;;11.70;8.13;;;16.90;71.20;;;;;;4996902;28;20482;-62
2023/04/09 10:40:35;;;;;;;26.50;8.90;;;17.10;72.20;;;;;;4995638;28;20490;-63
2023/04/09 10:43:04;;;;;;;8.77;6.50;;;17.00;71.70;;;;;;4997513;28;20482;-63
2023/04/09 10:45:41;;;;;;;16.97;11.50;;;;;;;;;;4995817;28;20499;-63
2023/04/09 10:48:12;;;;;;;8.63;6.83;;;17.70;72.90;;;;;;4999684;28;20556;-63
2023/04/09 10:50:42;;;;;;;20.40;13.50;;;17.50;70.30;;;;;;4999590;28;20542;-63
2023/04/09 10:53:21;;;;;;;27.27;7.37;;;17.10;68.20;;;;;;4999156;28;20490;-63
2023/04/09 10:55:50;;;;;;;12.37;7.50;;;16.70;67.80;;;;;;4983408;28;20477;-63
2023/04/09 10:58:17;;;;;;;15.00;9.00;;;;;;;;;;4997163;28;20926;-63
2023/04/09 11:00:47;;;;;;;15.40;7.50;;;16.90;68.40;;;;;;4998232;28;20988;-63
2023/04/09 11:03:21;;;;;;;12.90;8.20;;;16.80;71.00;;;;;;4999317;28;21030;-63
2023/04/09 11:05:51;;;;;;;12.83;7.13;;;17.00;74.60;;;;;;5005794;28;20567;-63
2023/04/09 11:08:20;;;;;;;11.30;7.43;;;16.90;70.90;;;;;;5019041;28;20954;-63
2023/04/09 11:10:47;;;;;;;16.80;9.27;;;17.20;72.80;;;;;;5004948;28;20740;-63
2023/04/09 11:13:16;;;;;;;14.00;6.60;;;17.50;74.60;;;;;;5019550;28;20493;-63
2023/04/09 11:15:43;;;;;;;19.43;9.70;;;17.70;69.90;;;;;;5018367;28;20477;-62
2023/04/09 11:18:14;;;;;;;16.93;8.83;;;;;;;;;;5012966;28;20481;-64
2023/04/09 11:20:41;;;;;;;28.57;12.93;;;18.30;71.90;;;;;;5015377;28;22110;-63
2023/04/09 11:23:07;;;;;;;11.03;6.87;;;18.40;70.40;;;;;;5017343;28;20535;-63
2023/04/09 11:25:35;;;;;;;30.40;13.10;;;;;;;;;;5015005;28;20485;-64
2023/04/09 11:28:03;;;;;;;14.50;8.40;;;18.30;68.50;;;;;;5016789;28;21942;-64
2023/04/09 11:30:30;;;;;;;26.30;10.57;;;17.70;66.00;;;;;;5013850;28;20872;-64
2023/04/09 11:32:57;;;;;;;6.17;5.57;;;17.40;69.50;;;;;;5016520;28;20568;-63
2023/04/09 11:35:25;;;;;;;8.93;7.70;;;17.00;65.90;;;;;;5015161;28;20480;-64
2023/04/09 11:37:52;;;;;;;7.63;6.90;;;16.90;65.20;;;;;;5013926;28;20477;-62
2023/04/09 11:40:20;;;;;;;9.20;6.90;;;17.10;73.30;;;;;;5015462;28;20513;-63
2023/04/09 11:42:49;;;;;;;8.63;6.80;;;17.50;74.70;;;;;;5012975;28;20473;-63
2023/04/09 11:45:17;;;;;;;8.47;6.90;;;17.90;69.80;;;;;;5014208;28;20476;-63
2023/04/09 11:47:46;;;;;;;25.57;8.53;;;18.30;70.60;;;;;;5014797;28;20488;-63
2023/04/09 11:50:14;;;;;;;9.33;8.03;;;17.80;63.80;;;;;;5014853;28;20560;-63
2023/04/09 11:52:43;;;;;;;13.70;9.17;;;17.90;72.10;;;;;;5014002;28;20548;-63
2023/04/09 11:55:10;;;;;;;12.00;6.80;;;17.80;66.20;;;;;;5020041;28;20854;-63
2023/04/09 11:57:39;;;;;;;21.83;11.80;;;18.20;71.50;;;;;;5016286;28;20485;-64
2023/04/09 12:00:09;;;;;;;16.90;9.80;;;18.50;72.10;;;;;;5014866;28;20649;-63
2023/04/09 12:02:41;;;;;;;17.33;7.67;;;18.70;66.60;;;;;;5018025;28;20489;-63
2023/04/09 12:05:10;;;;;;;12.20;8.07;;;18.60;70.70;;;;;;5015926;28;20490;-63
2023/04/09 12:07:37;;;;;;;18.83;10.63;;;18.40;66.00;;;;;;5015291;28;20496;-63
2023/04/09 12:10:08;;;;;;;17.30;9.90;;;18.60;68.10;;;;;;5015247;28;20570;-63
2023/04/09 12:12:42;;;;;;;27.70;11.93;;;18.50;65.60;;;;;;5014229;28;20505;-63
2023/04/09 12:15:20;;;;;;;18.53;7.67;;;18.60;68.60;;;;;;5017408;28;20477;-63
2023/04/09 12:17:48;;;;;;;14.83;9.40;;;18.20;64.30;;;;;;5014498;28;20485;-63
2023/04/09 12:20:26;;;;;;;14.47;9.50;;;18.30;71.30;;;;;;5012818;28;21053;-63
2023/04/09 12:22:53;;;;;;;10.67;7.30;;;18.30;68.00;;;;;;4990255;28;20481;-62
2023/04/09 12:25:21;;;;;;;11.93;7.67;;;18.30;65.70;;;;;;4999119;28;20483;-63
2023/04/09 12:27:48;;;;;;;13.53;5.80;;;18.40;68.00;;;;;;4998649;28;20479;-63
2023/04/09 12:30:15;;;;;;;9.23;6.47;;;18.30;68.90;;;;;;4996740;28;20482;-64
2023/04/09 12:32:43;;;;;;;16.93;10.73;;;18.10;65.00;;;;;;4994718;28;20505;-63
2023/04/09 12:35:10;;;;;;;20.07;9.50;;;18.30;68.40;;;;;;4995474;28;20853;-63
2023/04/09 12:37:37;;;;;;;18.20;12.50;;;18.20;68.60;;;;;;4997630;28;20516;-64
2023/04/09 12:40:04;;;;;;;11.13;8.67;;;18.40;71.30;;;;;;4999644;28;20497;-64
2023/04/09 12:42:32;;;;;;;17.30;9.10;;;18.40;67.30;;;;;;4998768;28;20492;-64